sensor_id;sensor_type;location;lat;lon;timestamp;temperature;humidity
51305;HTU21D;37392;50.964;6.952;2022-12-07T00:03:48;5.34;-4.16
51305;HTU21D;37392;50.964;6.952;2022-12-07T00:06:16;5.33;-4.28
51305;HTU21D;37392;50.964;6.952;2022-12-07T00:08:42;5.33;-4.41
51305;HTU21D;37392;50.964;6.952;2022-12-07T00:11:14;5.33;-4.37
51305;HTU21D;37392;50.964;6.952;2022-12-07T00:13:44;5.30;-4.63
51305;HTU21D;37392;50.964;6.952;2022-12-07T00:16:15;5.27;-4.28
51305;HTU21D;37392;50.964;6.952;2022-12-07T00:18:41;5.26;-4.31
51305;HTU21D;37392;50.964;6.952;2022-12-07T00:21:15;5.21;-4.33
51305;HTU21D;37392;50.964;6.952;2022-12-07T00:23:43;5.15;-4.40
51305;HTU21D;37392;50.964;6.952;2022-12-07T00:26:17;5.11;-4.31
51305;HTU21D;37392;50.964;6.952;2022-12-07T00:28:46;5.07;-4.32
51305;HTU21D;37392;50.964;6.952;2022-12-07T00:31:14;5.05;-4.16
51305;HTU21D;37392;50.964;6.952;2022-12-07T00:33:40;5.03;-3.99
51305;HTU21D;37392;50.964;6.952;2022-12-07T00:36:09;5.06;-3.92
51305;HTU21D;37392;50.964;6.952;2022-12-07T00:38:38;5.06;-3.82
51305;HTU21D;37392;50.964;6.952;2022-12-07T00:41:06;5.15;-3.70
51305;HTU21D;37392;50.964;6.952;2022-12-07T00:43:34;5.19;-3.86
51305;HTU21D;37392;50.964;6.952;2022-12-07T00:46:00;5.23;-4.27
51305;HTU21D;37392;50.964;6.952;2022-12-07T00:48:25;5.27;-4.39
51305;HTU21D;37392;50.964;6.952;2022-12-07T00:50:51;5.24;-4.57
51305;HTU21D;37392;50.964;6.952;2022-12-07T00:53:17;5.28;-4.49
51305;HTU21D;37392;50.964;6.952;2022-12-07T00:55:44;5.32;-4.70
51305;HTU21D;37392;50.964;6.952;2022-12-07T00:58:10;5.32;-4.85
51305;HTU21D;37392;50.964;6.952;2022-12-07T01:00:38;5.36;-4.66
51305;HTU21D;37392;50.964;6.952;2022-12-07T01:03:06;5.38;-4.62
51305;HTU21D;37392;50.964;6.952;2022-12-07T01:05:33;5.37;-4.99
51305;HTU21D;37392;50.964;6.952;2022-12-07T01:07:59;5.40;-4.79
51305;HTU21D;37392;50.964;6.952;2022-12-07T01:10:25;5.45;-4.78
51305;HTU21D;37392;50.964;6.952;2022-12-07T01:12:51;5.41;-5.28
51305;HTU21D;37392;50.964;6.952;2022-12-07T01:15:17;5.45;-5.36
51305;HTU21D;37392;50.964;6.952;2022-12-07T01:17:42;5.49;-5.50
51305;HTU21D;37392;50.964;6.952;2022-12-07T01:20:08;5.49;-5.74
51305;HTU21D;37392;50.964;6.952;2022-12-07T01:22:38;5.48;-5.82
51305;HTU21D;37392;50.964;6.952;2022-12-07T01:25:05;5.51;-5.95
51305;HTU21D;37392;50.964;6.952;2022-12-07T01:27:33;5.50;118.82
51305;HTU21D;37392;50.964;6.952;2022-12-07T01:29:59;5.53;118.90
51305;HTU21D;37392;50.964;6.952;2022-12-07T01:32:25;5.52;118.63
51305;HTU21D;37392;50.964;6.952;2022-12-07T01:34:51;5.50;118.38
51305;HTU21D;37392;50.964;6.952;2022-12-07T01:37:17;5.51;118.44
51305;HTU21D;37392;50.964;6.952;2022-12-07T01:39:42;5.54;118.61
51305;HTU21D;37392;50.964;6.952;2022-12-07T01:42:11;5.56;118.85
51305;HTU21D;37392;50.964;6.952;2022-12-07T01:47:51;5.52;118.30
51305;HTU21D;37392;50.964;6.952;2022-12-07T01:50:21;5.54;118.24
51305;HTU21D;37392;50.964;6.952;2022-12-07T01:52:50;5.55;118.41
51305;HTU21D;37392;50.964;6.952;2022-12-07T01:55:17;5.53;118.44
51305;HTU21D;37392;50.964;6.952;2022-12-07T01:57:47;5.55;118.59
51305;HTU21D;37392;50.964;6.952;2022-12-07T02:00:14;5.55;118.63
51305;HTU21D;37392;50.964;6.952;2022-12-07T02:02:48;5.56;118.70
51305;HTU21D;37392;50.964;6.952;2022-12-07T02:05:25;5.50;118.87
51305;HTU21D;37392;50.964;6.952;2022-12-07T02:07:54;5.48;118.78
51305;HTU21D;37392;50.964;6.952;2022-12-07T02:10:22;5.47;118.96
51305;HTU21D;37392;50.964;6.952;2022-12-07T02:13:14;5.45;-5.78
51305;HTU21D;37392;50.964;6.952;2022-12-07T02:21:38;5.43;-5.44
51305;HTU21D;37392;50.964;6.952;2022-12-07T02:29:49;5.38;-5.07
51305;HTU21D;37392;50.964;6.952;2022-12-07T02:32:55;5.32;-5.14
51305;HTU21D;37392;50.964;6.952;2022-12-07T02:35:41;5.33;-5.05
51305;HTU21D;37392;50.964;6.952;2022-12-07T02:38:16;5.31;-4.89
51305;HTU21D;37392;50.964;6.952;2022-12-07T02:43:26;5.28;-5.01
51305;HTU21D;37392;50.964;6.952;2022-12-07T02:46:01;5.21;-5.18
51305;HTU21D;37392;50.964;6.952;2022-12-07T02:48:31;5.17;-5.32
51305;HTU21D;37392;50.964;6.952;2022-12-07T02:50:58;5.13;-5.00
51305;HTU21D;37392;50.964;6.952;2022-12-07T02:53:36;5.13;-4.90
51305;HTU21D;37392;50.964;6.952;2022-12-07T03:08:16;5.21;-4.60
51305;HTU21D;37392;50.964;6.952;2022-12-07T03:11:08;5.22;-4.79
51305;HTU21D;37392;50.964;6.952;2022-12-07T03:18:56;5.30;-5.10
51305;HTU21D;37392;50.964;6.952;2022-12-07T03:21:27;5.31;-5.11
51305;HTU21D;37392;50.964;6.952;2022-12-07T03:24:00;5.31;-5.14
51305;HTU21D;37392;50.964;6.952;2022-12-07T03:26:38;5.33;-5.13
51305;HTU21D;37392;50.964;6.952;2022-12-07T03:29:56;5.31;-5.39
51305;HTU21D;37392;50.964;6.952;2022-12-07T03:32:29;5.33;-5.40
51305;HTU21D;37392;50.964;6.952;2022-12-07T03:40:49;5.30;-5.59
51305;HTU21D;37392;50.964;6.952;2022-12-07T03:43:21;5.27;-5.63
51305;HTU21D;37392;50.964;6.952;2022-12-07T03:46:18;5.25;-5.41
51305;HTU21D;37392;50.964;6.952;2022-12-07T03:49:01;5.27;-5.49
51305;HTU21D;37392;50.964;6.952;2022-12-07T03:52:12;5.24;-5.51
51305;HTU21D;37392;50.964;6.952;2022-12-07T03:54:48;5.22;-5.62
51305;HTU21D;37392;50.964;6.952;2022-12-07T03:57:18;5.23;-5.53
51305;HTU21D;37392;50.964;6.952;2022-12-07T03:59:44;5.20;-5.40
51305;HTU21D;37392;50.964;6.952;2022-12-07T04:02:13;5.22;-5.44
51305;HTU21D;37392;50.964;6.952;2022-12-07T04:04:39;5.23;-5.57
51305;HTU21D;37392;50.964;6.952;2022-12-07T04:07:05;5.22;-5.55
51305;HTU21D;37392;50.964;6.952;2022-12-07T04:09:30;5.26;-5.43
51305;HTU21D;37392;50.964;6.952;2022-12-07T04:11:56;5.27;-5.49
51305;HTU21D;37392;50.964;6.952;2022-12-07T04:14:22;5.30;-5.73
51305;HTU21D;37392;50.964;6.952;2022-12-07T04:16:55;5.32;-5.89
51305;HTU21D;37392;50.964;6.952;2022-12-07T04:19:23;5.32;-5.95
51305;HTU21D;37392;50.964;6.952;2022-12-07T04:21:51;5.32;118.91
51305;HTU21D;37392;50.964;6.952;2022-12-07T04:24:16;5.31;118.92
51305;HTU21D;37392;50.964;6.952;2022-12-07T04:26:42;5.32;-5.93
51305;HTU21D;37392;50.964;6.952;2022-12-07T04:29:09;5.28;118.95
51305;HTU21D;37392;50.964;6.952;2022-12-07T04:31:35;5.26;-5.86
51305;HTU21D;37392;50.964;6.952;2022-12-07T04:34:01;5.28;118.85
51305;HTU21D;37392;50.964;6.952;2022-12-07T04:36:27;5.27;-5.99
51305;HTU21D;37392;50.964;6.952;2022-12-07T04:38:54;5.24;118.92
51305;HTU21D;37392;50.964;6.952;2022-12-07T04:41:20;5.21;118.73
51305;HTU21D;37392;50.964;6.952;2022-12-07T04:44:00;5.17;118.96
51305;HTU21D;37392;50.964;6.952;2022-12-07T04:46:28;5.18;-5.92
51305;HTU21D;37392;50.964;6.952;2022-12-07T04:48:56;5.18;-6.00
51305;HTU21D;37392;50.964;6.952;2022-12-07T04:51:26;5.16;118.93
51305;HTU21D;37392;50.964;6.952;2022-12-07T04:53:54;5.11;118.76
51305;HTU21D;37392;50.964;6.952;2022-12-07T04:56:21;5.07;118.82
51305;HTU21D;37392;50.964;6.952;2022-12-07T04:58:48;5.07;-5.90
51305;HTU21D;37392;50.964;6.952;2022-12-07T05:01:15;5.09;-5.81
51305;HTU21D;37392;50.964;6.952;2022-12-07T05:03:42;5.13;-5.79
51305;HTU21D;37392;50.964;6.952;2022-12-07T05:06:08;5.13;-5.76
51305;HTU21D;37392;50.964;6.952;2022-12-07T05:08:34;5.20;-5.89
51305;HTU21D;37392;50.964;6.952;2022-12-07T05:11:01;5.19;118.98
51305;HTU21D;37392;50.964;6.952;2022-12-07T05:13:28;5.20;118.90
51305;HTU21D;37392;50.964;6.952;2022-12-07T05:15:53;5.19;118.58
51305;HTU21D;37392;50.964;6.952;2022-12-07T05:18:21;5.23;118.81
51305;HTU21D;37392;50.964;6.952;2022-12-07T05:20:48;5.23;118.87
51305;HTU21D;37392;50.964;6.952;2022-12-07T05:23:14;5.25;118.81
51305;HTU21D;37392;50.964;6.952;2022-12-07T05:25:39;5.23;118.86
51305;HTU21D;37392;50.964;6.952;2022-12-07T05:28:05;5.22;118.77
51305;HTU21D;37392;50.964;6.952;2022-12-07T05:30:31;5.20;118.81
51305;HTU21D;37392;50.964;6.952;2022-12-07T05:32:57;5.17;118.97
51305;HTU21D;37392;50.964;6.952;2022-12-07T05:35:23;5.19;-5.90
51305;HTU21D;37392;50.964;6.952;2022-12-07T05:37:49;5.20;-5.93
51305;HTU21D;37392;50.964;6.952;2022-12-07T05:40:15;5.17;-5.82
51305;HTU21D;37392;50.964;6.952;2022-12-07T05:42:41;5.11;-5.84
51305;HTU21D;37392;50.964;6.952;2022-12-07T05:45:08;5.11;-5.85
51305;HTU21D;37392;50.964;6.952;2022-12-07T05:47:34;5.11;-5.78
51305;HTU21D;37392;50.964;6.952;2022-12-07T05:50:00;5.11;118.71
51305;HTU21D;37392;50.964;6.952;2022-12-07T05:52:26;5.04;118.48
51305;HTU21D;37392;50.964;6.952;2022-12-07T05:54:52;4.89;118.38
51305;HTU21D;37392;50.964;6.952;2022-12-07T05:57:18;4.76;118.46
51305;HTU21D;37392;50.964;6.952;2022-12-07T05:59:43;4.64;118.89
51305;HTU21D;37392;50.964;6.952;2022-12-07T06:02:14;4.54;-5.85
51305;HTU21D;37392;50.964;6.952;2022-12-07T06:04:43;4.52;-5.40
51305;HTU21D;37392;50.964;6.952;2022-12-07T06:07:13;4.53;-5.23
51305;HTU21D;37392;50.964;6.952;2022-12-07T06:09:40;4.48;-5.36
51305;HTU21D;37392;50.964;6.952;2022-12-07T06:12:06;4.39;-5.47
51305;HTU21D;37392;50.964;6.952;2022-12-07T06:14:51;4.21;-5.34
51305;HTU21D;37392;50.964;6.952;2022-12-07T06:17:16;4.07;-5.20
51305;HTU21D;37392;50.964;6.952;2022-12-07T06:19:42;3.94;-4.73
51305;HTU21D;37392;50.964;6.952;2022-12-07T06:22:09;3.88;-4.70
51305;HTU21D;37392;50.964;6.952;2022-12-07T06:24:36;3.75;-4.66
51305;HTU21D;37392;50.964;6.952;2022-12-07T06:27:03;3.69;-4.44
51305;HTU21D;37392;50.964;6.952;2022-12-07T06:29:30;3.63;-4.09
51305;HTU21D;37392;50.964;6.952;2022-12-07T06:31:56;3.61;-3.84
51305;HTU21D;37392;50.964;6.952;2022-12-07T06:34:22;3.64;-3.47
51305;HTU21D;37392;50.964;6.952;2022-12-07T06:36:50;3.67;-3.25
51305;HTU21D;37392;50.964;6.952;2022-12-07T06:39:21;3.73;-3.02
51305;HTU21D;37392;50.964;6.952;2022-12-07T06:41:47;3.82;-2.94
51305;HTU21D;37392;50.964;6.952;2022-12-07T06:44:13;3.94;-2.68
51305;HTU21D;37392;50.964;6.952;2022-12-07T06:46:39;4.00;-2.83
51305;HTU21D;37392;50.964;6.952;2022-12-07T06:49:05;4.08;-2.93
51305;HTU21D;37392;50.964;6.952;2022-12-07T06:51:32;4.15;-3.11
51305;HTU21D;37392;50.964;6.952;2022-12-07T06:53:58;4.19;-3.19
51305;HTU21D;37392;50.964;6.952;2022-12-07T06:56:24;4.27;-3.31
51305;HTU21D;37392;50.964;6.952;2022-12-07T06:58:50;4.37;-3.31
51305;HTU21D;37392;50.964;6.952;2022-12-07T07:01:17;4.44;-3.38
51305;HTU21D;37392;50.964;6.952;2022-12-07T07:03:44;4.48;-3.36
51305;HTU21D;37392;50.964;6.952;2022-12-07T07:06:11;4.48;-3.44
51305;HTU21D;37392;50.964;6.952;2022-12-07T07:08:38;4.50;-3.46
51305;HTU21D;37392;50.964;6.952;2022-12-07T07:11:06;4.48;-3.44
51305;HTU21D;37392;50.964;6.952;2022-12-07T07:13:32;4.49;-3.37
51305;HTU21D;37392;50.964;6.952;2022-12-07T07:15:58;4.50;-3.30
51305;HTU21D;37392;50.964;6.952;2022-12-07T07:18:24;4.51;-3.27
51305;HTU21D;37392;50.964;6.952;2022-12-07T07:20:51;4.47;-3.25
51305;HTU21D;37392;50.964;6.952;2022-12-07T07:23:17;4.47;-3.25
51305;HTU21D;37392;50.964;6.952;2022-12-07T07:25:44;4.38;-3.30
51305;HTU21D;37392;50.964;6.952;2022-12-07T07:28:10;4.32;-3.28
51305;HTU21D;37392;50.964;6.952;2022-12-07T07:30:36;4.31;-3.04
51305;HTU21D;37392;50.964;6.952;2022-12-07T07:33:03;4.33;-2.89
51305;HTU21D;37392;50.964;6.952;2022-12-07T07:35:36;4.41;-2.50
51305;HTU21D;37392;50.964;6.952;2022-12-07T07:38:06;4.44;-2.57
51305;HTU21D;37392;50.964;6.952;2022-12-07T07:40:32;4.50;-2.75
51305;HTU21D;37392;50.964;6.952;2022-12-07T07:42:58;4.56;-2.70
51305;HTU21D;37392;50.964;6.952;2022-12-07T07:45:24;4.65;-2.70
51305;HTU21D;37392;50.964;6.952;2022-12-07T07:47:51;4.69;-2.61
51305;HTU21D;37392;50.964;6.952;2022-12-07T07:50:18;4.79;-2.77
51305;HTU21D;37392;50.964;6.952;2022-12-07T07:52:44;4.88;-2.96
51305;HTU21D;37392;50.964;6.952;2022-12-07T07:55:10;4.90;-3.31
51305;HTU21D;37392;50.964;6.952;2022-12-07T07:57:39;4.93;-3.65
51305;HTU21D;37392;50.964;6.952;2022-12-07T08:00:13;4.95;-3.55
51305;HTU21D;37392;50.964;6.952;2022-12-07T08:02:41;4.97;-3.67
51305;HTU21D;37392;50.964;6.952;2022-12-07T08:05:08;4.96;-3.72
51305;HTU21D;37392;50.964;6.952;2022-12-07T08:07:34;5.03;-3.61
51305;HTU21D;37392;50.964;6.952;2022-12-07T08:10:00;5.06;-3.83
51305;HTU21D;37392;50.964;6.952;2022-12-07T08:12:25;5.05;-4.12
51305;HTU21D;37392;50.964;6.952;2022-12-07T08:14:51;5.09;-4.03
51305;HTU21D;37392;50.964;6.952;2022-12-07T08:17:17;5.10;-3.85
51305;HTU21D;37392;50.964;6.952;2022-12-07T08:19:43;5.09;-4.21
51305;HTU21D;37392;50.964;6.952;2022-12-07T08:22:08;5.05;-4.29
51305;HTU21D;37392;50.964;6.952;2022-12-07T08:24:35;5.04;-4.30
51305;HTU21D;37392;50.964;6.952;2022-12-07T08:27:01;5.07;-3.96
51305;HTU21D;37392;50.964;6.952;2022-12-07T08:29:27;5.20;-3.80
51305;HTU21D;37392;50.964;6.952;2022-12-07T08:31:53;5.28;-3.80
51305;HTU21D;37392;50.964;6.952;2022-12-07T08:34:18;5.47;-3.80
51305;HTU21D;37392;50.964;6.952;2022-12-07T08:36:44;5.48;-4.41
51305;HTU21D;37392;50.964;6.952;2022-12-07T08:39:10;5.50;-4.95
51305;HTU21D;37392;50.964;6.952;2022-12-07T08:41:35;5.68;-4.65
51305;HTU21D;37392;50.964;6.952;2022-12-07T08:44:01;5.84;-4.56
51305;HTU21D;37392;50.964;6.952;2022-12-07T08:46:37;6.01;-5.05
51305;HTU21D;37392;50.964;6.952;2022-12-07T08:49:11;6.10;-5.84
51305;HTU21D;37392;50.964;6.952;2022-12-07T08:51:39;6.22;118.33
51305;HTU21D;37392;50.964;6.952;2022-12-07T08:54:08;6.27;117.62
51305;HTU21D;37392;50.964;6.952;2022-12-07T08:56:36;6.35;117.63
51305;HTU21D;37392;50.964;6.952;2022-12-07T08:59:03;6.27;115.97
51305;HTU21D;37392;50.964;6.952;2022-12-07T09:01:29;6.26;115.96
51305;HTU21D;37392;50.964;6.952;2022-12-07T09:03:55;6.25;116.02
51305;HTU21D;37392;50.964;6.952;2022-12-07T09:06:20;6.36;115.79
51305;HTU21D;37392;50.964;6.952;2022-12-07T09:08:48;6.46;115.55
51305;HTU21D;37392;50.964;6.952;2022-12-07T09:11:15;6.55;115.12
51305;HTU21D;37392;50.964;6.952;2022-12-07T09:13:41;6.76;115.34
51305;HTU21D;37392;50.964;6.952;2022-12-07T09:16:06;6.91;114.38
51305;HTU21D;37392;50.964;6.952;2022-12-07T09:18:32;6.95;113.74
51305;HTU21D;37392;50.964;6.952;2022-12-07T09:20:58;6.95;114.15
51305;HTU21D;37392;50.964;6.952;2022-12-07T09:23:25;6.90;112.79
51305;HTU21D;37392;50.964;6.952;2022-12-07T09:25:50;6.94;113.20
51305;HTU21D;37392;50.964;6.952;2022-12-07T09:28:16;7.01;113.58
51305;HTU21D;37392;50.964;6.952;2022-12-07T09:30:46;7.11;114.09
51305;HTU21D;37392;50.964;6.952;2022-12-07T09:33:13;7.33;113.77
51305;HTU21D;37392;50.964;6.952;2022-12-07T09:35:47;7.29;111.90
51305;HTU21D;37392;50.964;6.952;2022-12-07T09:38:14;7.23;112.77
51305;HTU21D;37392;50.964;6.952;2022-12-07T09:40:41;7.24;113.33
51305;HTU21D;37392;50.964;6.952;2022-12-07T09:43:20;7.23;113.01
51305;HTU21D;37392;50.964;6.952;2022-12-07T09:45:50;7.29;112.32
51305;HTU21D;37392;50.964;6.952;2022-12-07T09:48:27;7.49;112.83
51305;HTU21D;37392;50.964;6.952;2022-12-07T09:50:58;7.58;112.55
51305;HTU21D;37392;50.964;6.952;2022-12-07T09:53:30;7.71;111.86
51305;HTU21D;37392;50.964;6.952;2022-12-07T09:55:59;7.89;111.49
51305;HTU21D;37392;50.964;6.952;2022-12-07T09:58:27;8.14;111.37
51305;HTU21D;37392;50.964;6.952;2022-12-07T10:01:00;8.37;110.38
51305;HTU21D;37392;50.964;6.952;2022-12-07T10:03:31;8.58;110.34
51305;HTU21D;37392;50.964;6.952;2022-12-07T10:05:57;8.70;108.47
51305;HTU21D;37392;50.964;6.952;2022-12-07T10:08:24;8.67;106.19
51305;HTU21D;37392;50.964;6.952;2022-12-07T10:10:52;8.64;106.75
51305;HTU21D;37392;50.964;6.952;2022-12-07T10:13:44;8.51;107.06
51305;HTU21D;37392;50.964;6.952;2022-12-07T10:18:53;8.23;107.32
51305;HTU21D;37392;50.964;6.952;2022-12-07T10:21:20;8.17;107.91
51305;HTU21D;37392;50.964;6.952;2022-12-07T10:26:52;8.16;108.09
51305;HTU21D;37392;50.964;6.952;2022-12-07T10:29:38;8.18;106.88
51305;HTU21D;37392;50.964;6.952;2022-12-07T10:32:26;8.28;107.69
51305;HTU21D;37392;50.964;6.952;2022-12-07T10:35:21;8.35;106.50
51305;HTU21D;37392;50.964;6.952;2022-12-07T10:37:58;8.42;105.64
51305;HTU21D;37392;50.964;6.952;2022-12-07T10:43:03;8.52;105.51
51305;HTU21D;37392;50.964;6.952;2022-12-07T10:46:13;8.43;103.97
51305;HTU21D;37392;50.964;6.952;2022-12-07T10:49:06;8.46;103.34
51305;HTU21D;37392;50.964;6.952;2022-12-07T10:55:14;8.44;103.75
51305;HTU21D;37392;50.964;6.952;2022-12-07T11:07:01;8.48;102.47
51305;HTU21D;37392;50.964;6.952;2022-12-07T11:09:38;8.42;102.35
51305;HTU21D;37392;50.964;6.952;2022-12-07T11:12:34;8.47;101.64
51305;HTU21D;37392;50.964;6.952;2022-12-07T11:18:27;8.67;102.39
51305;HTU21D;37392;50.964;6.952;2022-12-07T11:24:03;8.76;100.18
51305;HTU21D;37392;50.964;6.952;2022-12-07T11:35:30;8.85;98.86
51305;HTU21D;37392;50.964;6.952;2022-12-07T11:38:18;8.79;97.49
51305;HTU21D;37392;50.964;6.952;2022-12-07T11:40:51;8.71;98.64
51305;HTU21D;37392;50.964;6.952;2022-12-07T11:43:28;8.71;98.38
51305;HTU21D;37392;50.964;6.952;2022-12-07T11:46:07;8.63;97.90
51305;HTU21D;37392;50.964;6.952;2022-12-07T11:48:38;8.64;98.09
51305;HTU21D;37392;50.964;6.952;2022-12-07T11:51:13;8.65;97.52
51305;HTU21D;37392;50.964;6.952;2022-12-07T11:53:58;8.67;99.03
51305;HTU21D;37392;50.964;6.952;2022-12-07T11:56:28;8.59;98.87
51305;HTU21D;37392;50.964;6.952;2022-12-07T11:59:06;8.58;97.99
51305;HTU21D;37392;50.964;6.952;2022-12-07T12:01:48;8.67;97.49
51305;HTU21D;37392;50.964;6.952;2022-12-07T12:07:26;8.82;97.33
51305;HTU21D;37392;50.964;6.952;2022-12-07T12:10:02;8.79;97.56
51305;HTU21D;37392;50.964;6.952;2022-12-07T12:15:42;8.88;97.62
51305;HTU21D;37392;50.964;6.952;2022-12-07T12:18:38;9.12;96.65
51305;HTU21D;37392;50.964;6.952;2022-12-07T12:21:14;9.23;96.11
51305;HTU21D;37392;50.964;6.952;2022-12-07T12:23:48;9.21;94.91
51305;HTU21D;37392;50.964;6.952;2022-12-07T12:26:25;9.09;95.12
51305;HTU21D;37392;50.964;6.952;2022-12-07T12:29:04;8.91;96.12
51305;HTU21D;37392;50.964;6.952;2022-12-07T12:31:34;8.75;96.28
51305;HTU21D;37392;50.964;6.952;2022-12-07T12:34:38;8.79;97.83
51305;HTU21D;37392;50.964;6.952;2022-12-07T12:37:47;8.85;97.17
51305;HTU21D;37392;50.964;6.952;2022-12-07T12:42:59;9.05;95.54
51305;HTU21D;37392;50.964;6.952;2022-12-07T12:47:58;9.12;96.10
51305;HTU21D;37392;50.964;6.952;2022-12-07T12:50:36;9.05;95.81
51305;HTU21D;37392;50.964;6.952;2022-12-07T12:53:16;8.86;95.20
51305;HTU21D;37392;50.964;6.952;2022-12-07T13:00:43;8.89;94.93
51305;HTU21D;37392;50.964;6.952;2022-12-07T13:03:24;8.76;95.20
51305;HTU21D;37392;50.964;6.952;2022-12-07T13:08:50;8.59;96.46
51305;HTU21D;37392;50.964;6.952;2022-12-07T13:11:35;8.50;96.77
51305;HTU21D;37392;50.964;6.952;2022-12-07T13:17:03;8.44;96.84
51305;HTU21D;37392;50.964;6.952;2022-12-07T13:27:57;7.99;97.87
51305;HTU21D;37392;50.964;6.952;2022-12-07T13:30:27;8.01;98.48
51305;HTU21D;37392;50.964;6.952;2022-12-07T13:32:56;8.06;98.64
51305;HTU21D;37392;50.964;6.952;2022-12-07T13:35:31;8.13;98.92
51305;HTU21D;37392;50.964;6.952;2022-12-07T13:38:02;8.16;98.45
51305;HTU21D;37392;50.964;6.952;2022-12-07T13:40:30;8.23;98.39
51305;HTU21D;37392;50.964;6.952;2022-12-07T13:43:01;8.22;97.77
51305;HTU21D;37392;50.964;6.952;2022-12-07T13:45:31;8.23;97.48
51305;HTU21D;37392;50.964;6.952;2022-12-07T13:48:22;8.18;97.05
51305;HTU21D;37392;50.964;6.952;2022-12-07T13:50:57;8.23;97.21
51305;HTU21D;37392;50.964;6.952;2022-12-07T13:53:24;8.30;97.20
51305;HTU21D;37392;50.964;6.952;2022-12-07T13:55:53;8.28;97.01
51305;HTU21D;37392;50.964;6.952;2022-12-07T13:58:19;8.28;96.91
51305;HTU21D;37392;50.964;6.952;2022-12-07T14:00:44;8.17;96.48
51305;HTU21D;37392;50.964;6.952;2022-12-07T14:05:43;7.99;97.39
51305;HTU21D;37392;50.964;6.952;2022-12-07T14:13:35;7.84;98.46
51305;HTU21D;37392;50.964;6.952;2022-12-07T14:16:24;7.81;97.91
51305;HTU21D;37392;50.964;6.952;2022-12-07T14:18:56;7.77;98.18
51305;HTU21D;37392;50.964;6.952;2022-12-07T14:21:26;7.65;98.08
51305;HTU21D;37392;50.964;6.952;2022-12-07T14:24:15;7.62;98.18
51305;HTU21D;37392;50.964;6.952;2022-12-07T14:26:44;7.57;98.92
51305;HTU21D;37392;50.964;6.952;2022-12-07T14:31:57;7.49;99.42
51305;HTU21D;37392;50.964;6.952;2022-12-07T14:34:24;7.49;99.36
51305;HTU21D;37392;50.964;6.952;2022-12-07T14:36:50;7.44;99.64
51305;HTU21D;37392;50.964;6.952;2022-12-07T14:39:16;7.43;99.94
51305;HTU21D;37392;50.964;6.952;2022-12-07T14:41:42;7.40;99.63
51305;HTU21D;37392;50.964;6.952;2022-12-07T14:44:19;7.32;100.02
51305;HTU21D;37392;50.964;6.952;2022-12-07T14:46:46;7.31;100.31
51305;HTU21D;37392;50.964;6.952;2022-12-07T14:49:13;7.27;100.61
51305;HTU21D;37392;50.964;6.952;2022-12-07T14:51:40;7.19;100.02
51305;HTU21D;37392;50.964;6.952;2022-12-07T14:54:20;7.09;100.97
51305;HTU21D;37392;50.964;6.952;2022-12-07T14:56:46;6.99;101.37
51305;HTU21D;37392;50.964;6.952;2022-12-07T14:59:16;6.96;101.70
51305;HTU21D;37392;50.964;6.952;2022-12-07T15:01:42;6.89;102.42
51305;HTU21D;37392;50.964;6.952;2022-12-07T15:04:08;6.88;102.53
51305;HTU21D;37392;50.964;6.952;2022-12-07T15:06:34;6.86;102.94
51305;HTU21D;37392;50.964;6.952;2022-12-07T15:08:59;6.86;103.58
51305;HTU21D;37392;50.964;6.952;2022-12-07T15:11:25;6.87;104.98
51305;HTU21D;37392;50.964;6.952;2022-12-07T15:13:51;6.80;106.24
51305;HTU21D;37392;50.964;6.952;2022-12-07T15:16:38;6.71;108.22
51305;HTU21D;37392;50.964;6.952;2022-12-07T15:19:06;6.65;108.91
51305;HTU21D;37392;50.964;6.952;2022-12-07T15:21:36;6.57;109.24
51305;HTU21D;37392;50.964;6.952;2022-12-07T15:24:02;6.53;110.01
51305;HTU21D;37392;50.964;6.952;2022-12-07T15:26:27;6.38;109.44
51305;HTU21D;37392;50.964;6.952;2022-12-07T15:28:53;6.36;111.13
51305;HTU21D;37392;50.964;6.952;2022-12-07T15:31:19;6.26;111.43
51305;HTU21D;37392;50.964;6.952;2022-12-07T15:33:45;6.14;111.61
51305;HTU21D;37392;50.964;6.952;2022-12-07T15:36:23;6.05;112.74
51305;HTU21D;37392;50.964;6.952;2022-12-07T15:38:49;5.98;113.02
51305;HTU21D;37392;50.964;6.952;2022-12-07T15:41:16;5.89;112.84
51305;HTU21D;37392;50.964;6.952;2022-12-07T15:43:45;5.84;112.86
51305;HTU21D;37392;50.964;6.952;2022-12-07T15:46:31;5.67;112.95
51305;HTU21D;37392;50.964;6.952;2022-12-07T15:49:17;5.40;113.32
51305;HTU21D;37392;50.964;6.952;2022-12-07T15:51:44;5.16;114.12
51305;HTU21D;37392;50.964;6.952;2022-12-07T15:54:18;4.93;114.32
51305;HTU21D;37392;50.964;6.952;2022-12-07T15:56:45;4.74;115.27
51305;HTU21D;37392;50.964;6.952;2022-12-07T15:59:11;4.64;115.89
51305;HTU21D;37392;50.964;6.952;2022-12-07T16:01:37;4.46;115.77
51305;HTU21D;37392;50.964;6.952;2022-12-07T16:04:02;4.31;116.22
51305;HTU21D;37392;50.964;6.952;2022-12-07T16:06:28;4.23;117.58
51305;HTU21D;37392;50.964;6.952;2022-12-07T16:08:53;4.22;118.32
51305;HTU21D;37392;50.964;6.952;2022-12-07T16:11:21;4.12;118.20
51305;HTU21D;37392;50.964;6.952;2022-12-07T16:13:47;4.07;118.59
51305;HTU21D;37392;50.964;6.952;2022-12-07T16:16:15;4.12;-5.89
51305;HTU21D;37392;50.964;6.952;2022-12-07T16:18:42;4.07;-5.73
51305;HTU21D;37392;50.964;6.952;2022-12-07T16:21:08;4.12;-5.39
51305;HTU21D;37392;50.964;6.952;2022-12-07T16:23:34;4.15;-5.37
51305;HTU21D;37392;50.964;6.952;2022-12-07T16:26:16;4.13;-5.54
51305;HTU21D;37392;50.964;6.952;2022-12-07T16:28:44;4.17;-5.48
51305;HTU21D;37392;50.964;6.952;2022-12-07T16:31:19;4.18;-5.41
51305;HTU21D;37392;50.964;6.952;2022-12-07T16:33:46;4.22;-5.31
51305;HTU21D;37392;50.964;6.952;2022-12-07T16:36:13;4.24;-5.30
51305;HTU21D;37392;50.964;6.952;2022-12-07T16:38:41;4.29;-5.53
51305;HTU21D;37392;50.964;6.952;2022-12-07T16:41:07;4.29;-5.53
51305;HTU21D;37392;50.964;6.952;2022-12-07T16:43:34;4.32;-5.58
51305;HTU21D;37392;50.964;6.952;2022-12-07T16:46:00;4.34;-5.63
51305;HTU21D;37392;50.964;6.952;2022-12-07T16:48:26;4.33;-5.62
51305;HTU21D;37392;50.964;6.952;2022-12-07T16:50:52;4.33;-5.50
51305;HTU21D;37392;50.964;6.952;2022-12-07T16:53:22;4.39;-5.26
51305;HTU21D;37392;50.964;6.952;2022-12-07T16:55:48;4.41;-5.45
51305;HTU21D;37392;50.964;6.952;2022-12-07T16:58:15;4.46;-5.26
51305;HTU21D;37392;50.964;6.952;2022-12-07T17:00:42;4.45;-5.24
51305;HTU21D;37392;50.964;6.952;2022-12-07T17:03:09;4.48;-5.28
51305;HTU21D;37392;50.964;6.952;2022-12-07T17:05:40;4.49;-5.17
51305;HTU21D;37392;50.964;6.952;2022-12-07T17:08:06;4.48;-5.19
51305;HTU21D;37392;50.964;6.952;2022-12-07T17:10:34;4.49;-5.04
51305;HTU21D;37392;50.964;6.952;2022-12-07T17:13:02;4.50;-5.26
51305;HTU21D;37392;50.964;6.952;2022-12-07T17:16:08;4.52;-5.28
51305;HTU21D;37392;50.964;6.952;2022-12-07T17:18:35;4.53;-5.20
51305;HTU21D;37392;50.964;6.952;2022-12-07T17:21:06;4.54;-5.23
51305;HTU21D;37392;50.964;6.952;2022-12-07T17:23:34;4.57;-5.37
51305;HTU21D;37392;50.964;6.952;2022-12-07T17:26:09;4.61;-5.57
51305;HTU21D;37392;50.964;6.952;2022-12-07T17:28:40;4.67;118.96
51305;HTU21D;37392;50.964;6.952;2022-12-07T17:31:08;4.71;118.61
51305;HTU21D;37392;50.964;6.952;2022-12-07T17:33:35;4.71;118.50
51305;HTU21D;37392;50.964;6.952;2022-12-07T17:36:01;4.68;118.38
51305;HTU21D;37392;50.964;6.952;2022-12-07T17:38:37;4.73;118.18
51305;HTU21D;37392;50.964;6.952;2022-12-07T17:41:11;4.72;118.48
51305;HTU21D;37392;50.964;6.952;2022-12-07T17:43:38;4.73;118.26
51305;HTU21D;37392;50.964;6.952;2022-12-07T17:46:08;4.79;118.00